Time;durP1;ratioP1;P1;durP2;ratioP2;P2;SDS_P1;SDS_P2;PMS_P1;PMS_P2;Temp;Humidity;BMP_temperature;BMP_pressure;BME280_temperature;BME280_humidity;BME280_pressure;Samples;Min_cycle;Max_cycle;Signal;HPM_P1;HPM_P2
2023/02/07 00:02:25;;;;;;;28.35;15.50;;;;;;;;;;5076207;28;20021;-79
2023/02/07 00:05:11;;;;;;;29.50;16.05;;;;;;;;;;5074939;28;20017;-81
2023/02/07 00:07:57;;;;;;;29.35;15.98;;;;;;;;;;5074470;28;20017;-80
2023/02/07 00:10:43;;;;;;;26.75;15.18;;;;;;;;;;5075360;28;20024;-79
2023/02/07 00:13:28;;;;;;;28.33;15.15;;;;;;;;;;5075586;28;20058;-79
2023/02/07 00:16:14;;;;;;;29.33;15.65;;;;;;;;;;5077101;28;20063;-79
2023/02/07 00:19:00;;;;;;;24.60;14.50;;;;;;;;;;5075760;28;20028;-80
2023/02/07 00:21:45;;;;;;;27.98;15.80;;;;;;;;;;5074421;28;20024;-80
2023/02/07 00:24:31;;;;;;;30.85;15.80;;;;;;;;;;5074858;28;20021;-80
2023/02/07 00:27:17;;;;;;;25.73;15.20;;;;;;;;;;5075402;28;20445;-78
2023/02/07 00:30:03;;;;;;;33.92;17.23;;;;;;;;;;5075978;28;20445;-80
2023/02/07 00:32:48;;;;;;;27.92;15.40;;;;;;;;;;5074282;28;20040;-80
2023/02/07 00:35:34;;;;;;;30.25;15.43;;;;;;;;;;5075454;28;20027;-81
2023/02/07 00:38:19;;;;;;;27.52;14.98;;;;;;;;;;5074862;28;20029;-80
2023/02/07 00:41:05;;;;;;;28.30;15.20;;;;;;;;;;5074325;28;20025;-77
2023/02/07 00:43:51;;;;;;;28.75;15.10;;;;;;;;;;5073564;28;20104;-76
2023/02/07 00:46:37;;;;;;;29.38;15.32;;;;;;;;;;5073394;28;20298;-77
2023/02/07 00:49:23;;;;;;;29.10;15.57;;;;;;;;;;5073349;28;20076;-73
2023/02/07 00:52:08;;;;;;;28.83;16.15;;;;;;;;;;5072858;28;20016;-79
2023/02/07 00:54:54;;;;;;;29.38;15.57;;;;;;;;;;5073469;28;20028;-78
2023/02/07 00:57:39;;;;;;;29.35;15.60;;;;;;;;;;5073975;28;20028;-79
2023/02/07 01:00:25;;;;;;;29.02;15.95;;;;;;;;;;5072571;28;20023;-81
2023/02/07 01:03:11;;;;;;;31.23;16.67;;;;;;;;;;5072586;28;20021;-79
2023/02/07 01:05:56;;;;;;;31.33;16.20;;;;;;;;;;5073215;28;20516;-78
2023/02/07 01:08:42;;;;;;;28.52;14.82;;;;;;;;;;5073292;28;20021;-79
2023/02/07 01:11:28;;;;;;;30.42;16.25;;;;;;;;;;5074182;28;20017;-80
2023/02/07 01:14:13;;;;;;;30.27;16.27;;;;;;;;;;5073903;28;20028;-80
2023/02/07 01:16:59;;;;;;;28.70;16.30;;;;;;;;;;5071913;28;20020;-80
2023/02/07 01:19:45;;;;;;;33.00;17.50;;;;;;;;;;5073337;28;20056;-79
2023/02/07 01:22:30;;;;;;;32.75;16.73;;;;;;;;;;5073016;28;20024;-79
2023/02/07 01:25:16;;;;;;;31.92;17.13;;;;;;;;;;5071884;28;20408;-79
2023/02/07 01:28:01;;;;;;;33.55;17.27;;;;;;;;;;5072548;28;20398;-80
2023/02/07 01:30:47;;;;;;;33.15;17.48;;;;;;;;;;5071932;28;20020;-80
2023/02/07 01:33:33;;;;;;;32.30;17.67;;;;;;;;;;5072389;28;20037;-82
2023/02/07 01:36:19;;;;;;;30.73;17.35;;;;;;;;;;5072997;28;20059;-80
2023/02/07 01:39:07;;;;;;;31.25;17.25;;;;;;;;;;5071815;28;20034;-80
2023/02/07 01:41:53;;;;;;;33.28;17.27;;;;;;;;;;5073323;28;20028;-84
2023/02/07 01:44:39;;;;;;;33.08;17.80;;;;;;;;;;5073339;28;20024;-72
2023/02/07 01:47:25;;;;;;;30.65;17.65;;;;;;;;;;5074412;28;20429;-83
2023/02/07 01:50:10;;;;;;;32.33;16.95;;;;;;;;;;5073126;28;20025;-80
2023/02/07 01:53:01;;;;;;;33.10;17.10;;;;;;;;;;5072554;28;20017;-81
2023/02/07 01:55:47;;;;;;;29.45;16.73;;;;;;;;;;5072960;28;20040;-81
2023/02/07 01:58:33;;;;;;;29.83;16.88;;;;;;;;;;5073105;28;20365;-81
2023/02/07 02:01:22;;;;;;;33.03;18.02;;;;;;;;;;5072885;28;20043;-81
2023/02/07 02:04:08;;;;;;;36.47;18.80;;;;;;;;;;5073817;28;20052;-80
2023/02/07 02:06:54;;;;;;;36.50;18.13;;;;;;;;;;5073228;28;20433;-81
2023/02/07 02:09:40;;;;;;;33.60;17.70;;;;;;;;;;5072949;28;20020;-81
2023/02/07 02:12:44;;;;;;;34.00;17.65;;;;;;;;;;5072664;28;20095;-80
2023/02/07 02:15:41;;;;;;;34.40;18.35;;;;;;;;;;5072966;28;20031;-80
2023/02/07 02:18:45;;;;;;;32.80;18.13;;;;;;;;;;5072046;28;20031;-81
2023/02/07 02:21:42;;;;;;;35.33;17.88;;;;;;;;;;5073525;28;20023;-80
2023/02/07 02:24:42;;;;;;;34.67;18.13;;;;;;;;;;5072494;28;20048;-80
2023/02/07 02:27:46;;;;;;;34.85;18.83;;;;;;;;;;5072751;28;20104;-81
2023/02/07 02:30:32;;;;;;;33.35;18.70;;;;;;;;;;5075136;28;20024;-81
2023/02/07 02:33:20;;;;;;;34.60;19.02;;;;;;;;;;5075444;28;20076;-81
2023/02/07 02:36:06;;;;;;;35.15;18.08;;;;;;;;;;5075924;28;20406;-81
2023/02/07 02:38:58;;;;;;;32.88;17.60;;;;;;;;;;5075731;28;20467;-81
2023/02/07 02:41:55;;;;;;;35.65;18.35;;;;;;;;;;5076148;28;20028;-80
2023/02/07 02:44:46;;;;;;;34.75;18.35;;;;;;;;;;5076960;28;20035;-81
2023/02/07 02:47:32;;;;;;;33.90;18.17;;;;;;;;;;5078022;28;20017;-81
2023/02/07 02:50:20;;;;;;;33.15;18.10;;;;;;;;;;5080769;28;20016;-78
2023/02/07 02:53:05;;;;;;;35.00;18.58;;;;;;;;;;5088976;28;20039;-82
2023/02/07 02:56:09;;;;;;;36.00;18.83;;;;;;;;;;5085464;28;20024;-81
2023/02/07 02:58:58;;;;;;;36.38;18.40;;;;;;;;;;5075610;28;20113;-81
2023/02/07 03:01:51;;;;;;;34.90;18.60;;;;;;;;;;5077113;28;20025;-81
2023/02/07 03:04:36;;;;;;;39.17;18.27;;;;;;;;;;5076143;28;20029;-80
2023/02/07 03:07:40;;;;;;;33.55;18.23;;;;;;;;;;5076213;28;20072;-81
2023/02/07 03:10:44;;;;;;;32.75;17.23;;;;;;;;;;5076496;28;20364;-82
2023/02/07 03:13:48;;;;;;;33.95;17.80;;;;;;;;;;5075607;28;20362;-80
2023/02/07 03:16:39;;;;;;;34.70;17.08;;;;;;;;;;5076065;28;20396;-82
2023/02/07 03:19:34;;;;;;;35.00;17.92;;;;;;;;;;5078121;28;20028;-80
2023/02/07 03:22:22;;;;;;;32.95;17.33;;;;;;;;;;5083875;28;20043;-81
2023/02/07 03:25:08;;;;;;;29.95;16.95;;;;;;;;;;5077034;28;20025;-76
2023/02/07 03:27:54;;;;;;;34.30;17.92;;;;;;;;;;5051906;28;20013;-80
2023/02/07 03:30:41;;;;;;;31.40;17.63;;;;;;;;;;5043009;28;20474;-81
2023/02/07 03:33:27;;;;;;;34.53;18.33;;;;;;;;;;5022071;28;20092;-80
2023/02/07 03:36:18;;;;;;;34.60;17.63;;;;;;;;;;5036793;28;20064;-80
2023/02/07 03:39:04;;;;;;;35.10;18.00;;;;;;;;;;5036759;28;20029;-79
2023/02/07 03:41:55;;;;;;;37.42;19.80;;;;;;;;;;5036434;28;20029;-82
2023/02/07 03:44:42;;;;;;;31.48;17.33;;;;;;;;;;5037470;28;20032;-81
2023/02/07 03:47:28;;;;;;;32.20;18.17;;;;;;;;;;5037389;28;20018;-81
2023/02/07 03:50:14;;;;;;;33.17;17.65;;;;;;;;;;5035753;28;20029;-81
2023/02/07 03:52:59;;;;;;;36.75;19.17;;;;;;;;;;5035676;28;20017;-80
2023/02/07 03:55:45;;;;;;;33.85;18.15;;;;;;;;;;5035385;28;20091;-79
2023/02/07 03:58:30;;;;;;;34.60;19.05;;;;;;;;;;5036138;28;20020;-81
2023/02/07 04:01:16;;;;;;;34.20;18.40;;;;;;;;;;5034574;28;20026;-79
2023/02/07 04:04:02;;;;;;;35.97;18.50;;;;;;;;;;5035738;28;20032;-75
2023/02/07 04:06:47;;;;;;;35.28;18.52;;;;;;;;;;5035568;28;20100;-75
2023/02/07 04:09:33;;;;;;;36.25;18.58;;;;;;;;;;5036055;28;20074;-75
2023/02/07 04:12:18;;;;;;;33.67;18.67;;;;;;;;;;5034125;28;20128;-76
2023/02/07 04:15:05;;;;;;;40.22;19.15;;;;;;;;;;5035327;28;20072;-75
2023/02/07 04:17:50;;;;;;;35.38;18.65;;;;;;;;;;5034742;28;20021;-77
2023/02/07 04:20:36;;;;;;;33.38;18.50;;;;;;;;;;5034093;28;20104;-75
2023/02/07 04:23:21;;;;;;;37.40;19.02;;;;;;;;;;5035883;28;20044;-74
2023/02/07 04:26:07;;;;;;;38.03;19.33;;;;;;;;;;5034726;28;20371;-76
2023/02/07 04:28:53;;;;;;;38.75;18.80;;;;;;;;;;5034043;28;20323;-75
2023/02/07 04:31:39;;;;;;;36.55;18.83;;;;;;;;;;5033866;28;20033;-76
2023/02/07 04:34:24;;;;;;;36.38;20.27;;;;;;;;;;5035284;28;20084;-76
2023/02/07 04:37:10;;;;;;;41.83;21.27;;;;;;;;;;5034707;28;20026;-76
2023/02/07 04:39:55;;;;;;;44.42;22.08;;;;;;;;;;5033681;28;20022;-76
2023/02/07 04:42:41;;;;;;;42.42;22.05;;;;;;;;;;5034056;28;20075;-75
2023/02/07 04:45:27;;;;;;;45.15;23.08;;;;;;;;;;5034470;28;20034;-77
2023/02/07 04:48:12;;;;;;;43.35;20.27;;;;;;;;;;5034588;28;20079;-76
2023/02/07 04:50:58;;;;;;;42.33;21.67;;;;;;;;;;5034019;28;20029;-76
2023/02/07 04:53:43;;;;;;;40.95;20.63;;;;;;;;;;5033987;28;20022;-76
2023/02/07 04:56:29;;;;;;;40.90;20.25;;;;;;;;;;5033313;28;20088;-75
2023/02/07 04:59:15;;;;;;;38.92;19.80;;;;;;;;;;5037874;28;20025;-75
2023/02/07 05:02:00;;;;;;;40.22;20.30;;;;;;;;;;5043120;28;20018;-75
2023/02/07 05:04:46;;;;;;;41.72;19.83;;;;;;;;;;5046936;28;20092;-74
2023/02/07 05:10:36;;;;;;;40.35;20.40;;;;;;;;;;5034988;28;20009;-76
2023/02/07 05:13:22;;;;;;;36.35;19.27;;;;;;;;;;5034631;28;20021;-76
2023/02/07 05:16:08;;;;;;;37.28;20.15;;;;;;;;;;5036304;28;20081;-76
2023/02/07 05:18:53;;;;;;;34.00;18.35;;;;;;;;;;5033865;28;20029;-74
2023/02/07 05:21:39;;;;;;;33.92;17.50;;;;;;;;;;5034119;28;20021;-75
2023/02/07 05:24:25;;;;;;;33.20;18.08;;;;;;;;;;5033750;28;20021;-76
2023/02/07 05:27:10;;;;;;;34.63;17.98;;;;;;;;;;5034005;28;20045;-76
2023/02/07 05:29:58;;;;;;;35.22;18.63;;;;;;;;;;5033704;28;20029;-76
2023/02/07 05:35:47;;;;;;;32.28;17.02;;;;;;;;;;5034646;28;20033;-75
2023/02/07 05:38:33;;;;;;;31.70;17.67;;;;;;;;;;5035987;28;20033;-76
2023/02/07 05:41:19;;;;;;;34.30;16.90;;;;;;;;;;5035314;28;20029;-76
2023/02/07 05:44:05;;;;;;;28.95;15.23;;;;;;;;;;5033699;28;20083;-76
2023/02/07 05:46:51;;;;;;;32.97;16.10;;;;;;;;;;5034746;28;20056;-76
2023/02/07 05:49:38;;;;;;;36.65;18.38;;;;;;;;;;5034873;28;20032;-77
2023/02/07 05:52:23;;;;;;;50.63;26.48;;;;;;;;;;5032774;28;20438;-75
2023/02/07 05:55:10;;;;;;;52.50;26.77;;;;;;;;;;5034952;28;20091;-74
2023/02/07 05:57:56;;;;;;;57.28;27.35;;;;;;;;;;5034149;28;20033;-75
2023/02/07 06:00:41;;;;;;;74.13;42.00;;;;;;;;;;5033352;28;20112;-75
2023/02/07 06:03:27;;;;;;;36.50;20.08;;;;;;;;;;5034828;28;20430;-75
2023/02/07 06:06:12;;;;;;;40.70;19.83;;;;;;;;;;5037810;28;20453;-76
2023/02/07 06:08:58;;;;;;;36.35;18.35;;;;;;;;;;5037777;28;20033;-75
2023/02/07 06:11:44;;;;;;;33.88;18.08;;;;;;;;;;5036732;28;20434;-76
2023/02/07 06:14:29;;;;;;;35.70;18.17;;;;;;;;;;5037801;28;20446;-76
2023/02/07 06:17:15;;;;;;;31.60;17.00;;;;;;;;;;5036982;28;20026;-77
2023/02/07 06:20:00;;;;;;;38.90;18.63;;;;;;;;;;5038378;28;20021;-76
2023/02/07 06:22:46;;;;;;;39.88;19.60;;;;;;;;;;5037887;28;20021;-76
2023/02/07 06:25:32;;;;;;;42.95;21.58;;;;;;;;;;5037021;28;20066;-74
2023/02/07 06:28:17;;;;;;;39.17;19.92;;;;;;;;;;5037368;28;20021;-75
2023/02/07 06:31:03;;;;;;;35.97;20.30;;;;;;;;;;5036926;28;20022;-75
2023/02/07 06:33:49;;;;;;;38.42;20.42;;;;;;;;;;5036609;28;20083;-76
2023/02/07 06:36:34;;;;;;;43.65;21.23;;;;;;;;;;5036782;28;20021;-75
2023/02/07 06:39:20;;;;;;;45.47;22.25;;;;;;;;;;5037248;28;20397;-75
2023/02/07 06:42:06;;;;;;;41.28;20.55;;;;;;;;;;5037696;28;20502;-76
2023/02/07 06:44:51;;;;;;;52.50;23.85;;;;;;;;;;5036928;28;20029;-75
2023/02/07 06:47:37;;;;;;;51.95;22.15;;;;;;;;;;5037252;28;20107;-74
2023/02/07 06:50:22;;;;;;;48.40;23.05;;;;;;;;;;5036677;28;20018;-74
2023/02/07 06:53:08;;;;;;;51.90;24.15;;;;;;;;;;5036480;28;20017;-76
2023/02/07 06:55:53;;;;;;;54.00;25.55;;;;;;;;;;5036760;28;20104;-74
2023/02/07 06:58:39;;;;;;;54.65;27.27;;;;;;;;;;5036679;28;20028;-77
2023/02/07 07:01:25;;;;;;;51.78;25.88;;;;;;;;;;5036621;28;20052;-75
2023/02/07 07:04:10;;;;;;;48.88;24.77;;;;;;;;;;5037211;28;20499;-75
2023/02/07 07:06:56;;;;;;;43.55;22.00;;;;;;;;;;5035754;28;20025;-76
2023/02/07 07:09:41;;;;;;;40.53;20.45;;;;;;;;;;5036119;28;20022;-76
2023/02/07 07:12:27;;;;;;;44.30;21.63;;;;;;;;;;5036055;28;20028;-76
2023/02/07 07:15:13;;;;;;;38.55;20.83;;;;;;;;;;5036380;28;20013;-76
2023/02/07 07:17:59;;;;;;;37.25;20.13;;;;;;;;;;5035596;28;20021;-76
2023/02/07 07:20:44;;;;;;;35.42;19.98;;;;;;;;;;5035315;28;20052;-76
2023/02/07 07:23:30;;;;;;;34.92;19.02;;;;;;;;;;5037584;28;20091;-76
2023/02/07 07:26:16;;;;;;;33.15;18.13;;;;;;;;;;5036744;28;20029;-75
2023/02/07 07:29:02;;;;;;;28.30;16.17;;;;;;;;;;5036786;28;20099;-78
2023/02/07 07:31:47;;;;;;;24.92;13.95;;;;;;;;;;5036097;28;20066;-76
2023/02/07 07:34:33;;;;;;;25.55;13.00;;;;;;;;;;5035285;28;20017;-76
2023/02/07 07:37:19;;;;;;;23.40;13.35;;;;;;;;;;5036599;28;20018;-75
2023/02/07 07:40:05;;;;;;;25.58;13.63;;;;;;;;;;5035909;28;20116;-76
2023/02/07 07:42:51;;;;;;;24.65;13.02;;;;;;;;;;5035098;28;20018;-75
2023/02/07 07:45:36;;;;;;;21.42;12.45;;;;;;;;;;5035730;28;20446;-75
2023/02/07 07:48:23;;;;;;;23.52;12.02;;;;;;;;;;5035801;28;20017;-76
2023/02/07 07:51:09;;;;;;;21.98;12.57;;;;;;;;;;5035478;28;20045;-76
2023/02/07 07:53:54;;;;;;;19.70;11.07;;;;;;;;;;5036137;28;20021;-75
2023/02/07 07:56:40;;;;;;;23.52;12.30;;;;;;;;;;5035762;28;20072;-77
2023/02/07 07:59:25;;;;;;;22.92;12.77;;;;;;;;;;5034887;28;20041;-77
2023/02/07 08:02:11;;;;;;;23.58;12.73;;;;;;;;;;5035724;28;20028;-75
2023/02/07 08:04:57;;;;;;;22.75;13.13;;;;;;;;;;5049371;28;20022;-73
2023/02/07 08:07:43;;;;;;;25.90;12.25;;;;;;;;;;5041723;28;20482;-75
2023/02/07 08:10:28;;;;;;;22.55;12.32;;;;;;;;;;5036895;28;20022;-75
2023/02/07 08:13:15;;;;;;;22.55;12.82;;;;;;;;;;5036472;28;20108;-75
2023/02/07 08:16:01;;;;;;;25.67;11.68;;;;;;;;;;5036313;28;20025;-75
2023/02/07 08:18:47;;;;;;;23.52;12.32;;;;;;;;;;5034919;28;20366;-75
2023/02/07 08:21:33;;;;;;;23.05;13.18;;;;;;;;;;5037902;28;20036;-75
2023/02/07 08:24:18;;;;;;;22.52;12.45;;;;;;;;;;5036640;28;20419;-75
2023/02/07 08:27:04;;;;;;;22.77;12.43;;;;;;;;;;5035120;28;20014;-76
2023/02/07 08:29:50;;;;;;;23.40;13.13;;;;;;;;;;5035261;28;20435;-74
2023/02/07 08:32:35;;;;;;;24.30;13.15;;;;;;;;;;5034857;28;20080;-76
2023/02/07 08:35:21;;;;;;;22.95;12.77;;;;;;;;;;5050062;28;20025;-75
2023/02/07 08:38:07;;;;;;;23.00;12.32;;;;;;;;;;5035119;28;20045;-78
2023/02/07 08:40:52;;;;;;;19.67;11.30;;;;;;;;;;5035312;28;20033;-76
2023/02/07 08:43:38;;;;;;;19.67;11.00;;;;;;;;;;5036170;28;20032;-74
2023/02/07 08:46:23;;;;;;;17.15;10.00;;;;;;;;;;5035913;28;20018;-77
2023/02/07 08:49:09;;;;;;;16.48;9.27;;;;;;;;;;5035527;28;20018;-74
2023/02/07 08:51:55;;;;;;;16.02;8.18;;;;;;;;;;5035545;28;20079;-76
2023/02/07 08:54:41;;;;;;;12.27;7.65;;;;;;;;;;5035492;28;20040;-77
2023/02/07 08:57:26;;;;;;;13.77;8.75;;;;;;;;;;5033910;28;20045;-75
2023/02/07 09:00:12;;;;;;;14.50;9.40;;;;;;;;;;5038948;28;20100;-75
2023/02/07 09:02:58;;;;;;;35.20;15.32;;;;;;;;;;5054779;28;20027;-75
2023/02/07 09:05:43;;;;;;;43.90;18.58;;;;;;;;;;5034768;28;20060;-76
2023/02/07 09:08:30;;;;;;;16.88;8.75;;;;;;;;;;5034197;28;20046;-74
2023/02/07 09:11:16;;;;;;;11.00;6.88;;;;;;;;;;5033663;28;20013;-75
2023/02/07 09:14:02;;;;;;;13.38;7.00;;;;;;;;;;5033635;28;20014;-77
2023/02/07 09:16:48;;;;;;;20.27;10.52;;;;;;;;;;5035449;28;20013;-76
2023/02/07 09:19:34;;;;;;;15.77;9.18;;;;;;;;;;5033349;28;20120;-76
2023/02/07 09:22:19;;;;;;;15.07;9.48;;;;;;;;;;5033675;28;20021;-76
2023/02/07 09:25:05;;;;;;;21.08;11.20;;;;;;;;;;5034298;28;20025;-76
2023/02/07 09:27:51;;;;;;;16.15;9.35;;;;;;;;;;5034562;28;20018;-76
2023/02/07 09:30:39;;;;;;;14.80;7.88;;;;;;;;;;5036514;28;20021;-77
2023/02/07 09:33:25;;;;;;;14.68;8.50;;;;;;;;;;5037187;28;20172;-75
2023/02/07 09:36:21;;;;;;;15.45;9.55;;;;;;;;;;5035490;28;20463;-76
2023/02/07 09:39:07;;;;;;;18.58;9.50;;;;;;;;;;5035678;28;20036;-76
2023/02/07 09:42:16;;;;;;;17.13;8.88;;;;;;;;;;5045572;28;20056;-76
2023/02/07 09:45:06;;;;;;;14.13;8.43;;;;;;;;;;5059852;28;20025;-76
2023/02/07 09:47:55;;;;;;;14.00;8.50;;;;;;;;;;5059732;28;20013;-76
2023/02/07 09:50:48;;;;;;;16.02;9.00;;;;;;;;;;5058431;28;20088;-77
2023/02/07 09:53:45;;;;;;;14.35;8.30;;;;;;;;;;5058326;28;20021;-77
2023/02/07 09:56:31;;;;;;;14.60;7.78;;;;;;;;;;5054924;28;20036;-76
2023/02/07 09:59:23;;;;;;;15.25;9.13;;;;;;;;;;5054698;28;20029;-76
2023/02/07 10:02:29;;;;;;;16.65;9.50;;;;;;;;;;5054431;28;20037;-76
2023/02/07 10:05:18;;;;;;;18.38;10.25;;;;;;;;;;5053943;28;20442;-75
2023/02/07 10:08:22;;;;;;;17.92;10.85;;;;;;;;;;5054266;28;20052;-75
2023/02/07 10:11:20;;;;;;;18.95;9.90;;;;;;;;;;5055255;28;20021;-77
2023/02/07 10:14:24;;;;;;;17.90;10.80;;;;;;;;;;5054044;28;20017;-75
2023/02/07 10:17:22;;;;;;;17.50;10.45;;;;;;;;;;5053884;28;20095;-76
2023/02/07 10:20:22;;;;;;;16.17;9.95;;;;;;;;;;5055142;28;20499;-76
2023/02/07 10:23:11;;;;;;;17.73;9.90;;;;;;;;;;5051481;28;20151;-77
2023/02/07 10:26:15;;;;;;;19.88;10.98;;;;;;;;;;5063207;28;20021;-75
2023/02/07 10:29:07;;;;;;;18.65;10.73;;;;;;;;;;5062851;28;20021;-75
2023/02/07 10:31:54;;;;;;;18.80;10.80;;;;;;;;;;5058842;28;20229;-75
2023/02/07 10:34:43;;;;;;;21.70;11.68;;;;;;;;;;5053761;28;20041;-77
2023/02/07 10:37:30;;;;;;;22.15;11.80;;;;;;;;;;5049673;28;20020;-77
2023/02/07 10:40:21;;;;;;;19.08;10.75;;;;;;;;;;5053002;28;20029;-76
2023/02/07 10:43:15;;;;;;;18.38;10.13;;;;;;;;;;5053516;28;20029;-77
2023/02/07 10:46:04;;;;;;;16.52;10.05;;;;;;;;;;5053820;28;20013;-77
2023/02/07 10:48:50;;;;;;;18.77;10.35;;;;;;;;;;5053831;28;20025;-76
2023/02/07 10:51:37;;;;;;;18.73;10.27;;;;;;;;;;5056419;28;20096;-75
2023/02/07 10:54:23;;;;;;;17.92;9.07;;;;;;;;;;5058688;28;20029;-74
2023/02/07 10:57:13;;;;;;;17.17;9.45;;;;;;;;;;5058436;28;20016;-76
2023/02/07 11:00:01;;;;;;;19.13;9.85;;;;;;;;;;5057475;28;20097;-76
2023/02/07 11:02:48;;;;;;;16.63;9.13;;;;;;;;;;5059464;28;20032;-76
2023/02/07 11:05:57;;;;;;;13.73;8.48;;;;;;;;;;5056935;28;20476;-74
2023/02/07 11:08:43;;;;;;;15.05;9.50;;;;;;;;;;5057089;28;20120;-76
2023/02/07 11:11:31;;;;;;;16.50;9.38;;;;;;;;;;5056405;28;20020;-74
2023/02/07 11:14:25;;;;;;;15.77;8.57;;;;;;;;;;5056467;28;20445;-78
2023/02/07 11:17:18;;;;;;;14.57;8.40;;;;;;;;;;5057772;28;20025;-75
2023/02/07 11:20:04;;;;;;;14.65;8.85;;;;;;;;;;5057144;28;20323;-74
2023/02/07 11:22:51;;;;;;;13.88;7.93;;;;;;;;;;5057726;28;20360;-75
2023/02/07 11:25:38;;;;;;;13.88;8.77;;;;;;;;;;5056248;28;20028;-76
2023/02/07 11:28:29;;;;;;;13.63;8.00;;;;;;;;;;5057100;28;20103;-77
2023/02/07 11:31:20;;;;;;;18.02;9.52;;;;;;;;;;5057067;28;20025;-75
2023/02/07 11:34:25;;;;;;;14.65;8.27;;;;;;;;;;5057357;28;20103;-75
2023/02/07 11:37:16;;;;;;;23.27;12.13;;;;;;;;;;5056288;28;20021;-74
2023/02/07 11:40:19;;;;;;;19.55;10.40;;;;;;;;;;5056154;28;20055;-76
2023/02/07 11:43:07;;;;;;;17.15;9.10;;;;;;;;;;5055944;28;20103;-76
2023/02/07 11:45:57;;;;;;;18.27;9.07;;;;;;;;;;5060706;28;20035;-75
2023/02/07 11:48:46;;;;;;;17.90;9.27;;;;;;;;;;5067580;28;20021;-76
2023/02/07 11:51:34;;;;;;;22.70;9.07;;;;;;;;;;5063180;28;20024;-76
2023/02/07 11:54:19;;;;;;;13.80;8.02;;;;;;;;;;5055604;28;20464;-76
2023/02/07 11:57:06;;;;;;;13.77;8.15;;;;;;;;;;5055979;28;20037;-75
2023/02/07 12:00:00;;;;;;;16.48;7.95;;;;;;;;;;5058605;28;20445;-76
2023/02/07 12:02:57;;;;;;;12.02;7.07;;;;;;;;;;5073639;28;20036;-75
2023/02/07 12:05:45;;;;;;;12.77;7.68;;;;;;;;;;5074321;28;20166;-74
2023/02/07 12:08:32;;;;;;;15.18;8.55;;;;;;;;;;5075623;28;20044;-73
2023/02/07 12:11:23;;;;;;;14.15;7.70;;;;;;;;;;5074819;28;20411;-74
2023/02/07 12:14:17;;;;;;;13.38;7.45;;;;;;;;;;5074098;28;20013;-76
2023/02/07 12:17:06;;;;;;;13.13;6.90;;;;;;;;;;5075065;28;20032;-75
2023/02/07 12:20:03;;;;;;;11.73;7.15;;;;;;;;;;5074788;28;20017;-75
2023/02/07 12:22:54;;;;;;;14.35;7.90;;;;;;;;;;5080034;28;20067;-75
2023/02/07 12:26:00;;;;;;;13.95;7.00;;;;;;;;;;5074262;28;20041;-76
2023/02/07 12:28:48;;;;;;;12.57;7.07;;;;;;;;;;5074918;28;20021;-77
2023/02/07 12:32:10;;;;;;;12.93;7.18;;;;;;;;;;5038362;28;20048;-76
2023/02/07 12:35:18;;;;;;;13.05;6.95;;;;;;;;;;4986908;28;20042;-75
2023/02/07 12:38:15;;;;;;;11.85;6.75;;;;;;;;;;5033985;28;20029;-76
2023/02/07 12:41:06;;;;;;;11.35;6.95;;;;;;;;;;5035328;28;20454;-75
2023/02/07 12:44:08;;;;;;;12.65;7.10;;;;;;;;;;5034918;28;20160;-76
2023/02/07 12:47:00;;;;;;;12.18;7.00;;;;;;;;;;5034635;28;20021;-76
2023/02/07 12:49:59;;;;;;;15.18;8.05;;;;;;;;;;5035033;28;20017;-75
2023/02/07 12:52:45;;;;;;;14.70;7.55;;;;;;;;;;5033959;28;20050;-76
2023/02/07 12:55:43;;;;;;;11.18;7.35;;;;;;;;;;5035539;28;20022;-76
2023/02/07 12:58:29;;;;;;;11.13;6.88;;;;;;;;;;5034337;28;20040;-76
2023/02/07 13:01:27;;;;;;;13.65;7.03;;;;;;;;;;5034804;28;20116;-75
2023/02/07 13:04:28;;;;;;;9.75;6.45;;;;;;;;;;5043937;28;20029;-76
2023/02/07 13:07:22;;;;;;;10.48;6.10;;;;;;;;;;5073431;28;20040;-75
2023/02/07 13:10:35;;;;;;;10.05;6.03;;;;;;;;;;5074399;28;20100;-76
2023/02/07 13:13:35;;;;;;;11.02;6.45;;;;;;;;;;5074641;28;20472;-76
2023/02/07 13:16:32;;;;;;;9.05;4.57;;;;;;;;;;5073459;28;20028;-76
2023/02/07 13:19:18;;;;;;;10.18;5.03;;;;;;;;;;5072960;28;20612;-76
2023/02/07 13:22:26;;;;;;;17.67;8.05;;;;;;;;;;5072977;28;20028;-76
2023/02/07 13:25:15;;;;;;;10.02;6.22;;;;;;;;;;5072663;28;20031;-77
2023/02/07 13:28:03;;;;;;;10.23;5.22;;;;;;;;;;5075106;28;20021;-75
2023/02/07 13:30:49;;;;;;;7.63;4.68;;;;;;;;;;5074797;28;20024;-77
2023/02/07 13:33:36;;;;;;;8.57;4.85;;;;;;;;;;5072811;28;20113;-75
2023/02/07 13:36:40;;;;;;;6.18;4.00;;;;;;;;;;5064999;28;20076;-77
2023/02/07 13:39:28;;;;;;;8.80;4.75;;;;;;;;;;5074732;28;20021;-76
2023/02/07 13:42:35;;;;;;;8.52;4.50;;;;;;;;;;5072937;28;20104;-76
2023/02/07 13:45:39;;;;;;;9.15;4.88;;;;;;;;;;5072579;28;20024;-76
2023/02/07 13:48:31;;;;;;;8.23;4.63;;;;;;;;;;5073490;28;20012;-75
2023/02/07 13:51:30;;;;;;;10.57;5.70;;;;;;;;;;5072753;28;20063;-77
2023/02/07 13:54:22;;;;;;;8.02;5.05;;;;;;;;;;5073082;28;20032;-76
2023/02/07 14:00:26;;;;;;;8.57;5.47;;;;;;;;;;5073109;28;20027;-77
2023/02/07 14:03:59;;;;;;;10.10;5.60;;;;;;;;;;5074403;28;20053;-75
2023/02/07 14:06:55;;;;;;;20.48;5.40;;;;;;;;;;4991516;28;20402;-75
2023/02/07 14:09:44;;;;;;;10.13;5.60;;;;;;;;;;5035469;28;20044;-76
2023/02/07 14:12:42;;;;;;;10.80;6.13;;;;;;;;;;5035641;28;20468;-78
2023/02/07 14:15:29;;;;;;;14.82;6.47;;;;;;;;;;5037058;28;20087;-77
2023/02/07 14:18:39;;;;;;;23.27;9.98;;;;;;;;;;5033638;28;20026;-77
2023/02/07 14:21:30;;;;;;;17.08;9.35;;;;;;;;;;5034074;28;20021;-77
2023/02/07 14:24:17;;;;;;;10.82;6.90;;;;;;;;;;5033674;28;20064;-74
2023/02/07 14:27:03;;;;;;;9.77;5.80;;;;;;;;;;5036273;28;20029;-77
2023/02/07 14:30:21;;;;;;;11.45;6.88;;;;;;;;;;5036580;28;20164;-75
2023/02/07 14:33:27;;;;;;;8.88;5.68;;;;;;;;;;5020599;28;20446;-76
2023/02/07 14:36:13;;;;;;;11.35;6.72;;;;;;;;;;5037170;28;20029;-75
2023/02/07 14:39:05;;;;;;;11.82;6.85;;;;;;;;;;5037284;28;20025;-77
2023/02/07 14:41:51;;;;;;;11.07;6.65;;;;;;;;;;5036996;28;20116;-76
2023/02/07 14:44:38;;;;;;;13.43;6.45;;;;;;;;;;5036928;28;20040;-77
2023/02/07 14:47:26;;;;;;;11.90;7.07;;;;;;;;;;5037121;28;20017;-78
2023/02/07 14:50:20;;;;;;;11.98;7.05;;;;;;;;;;5037040;28;20465;-76
2023/02/07 14:53:12;;;;;;;12.32;7.63;;;;;;;;;;5037045;28;20353;-77
2023/02/07 14:56:00;;;;;;;11.27;7.13;;;;;;;;;;5036128;28;20100;-77
2023/02/07 14:58:46;;;;;;;12.52;7.13;;;;;;;;;;5036097;28;20040;-78
2023/02/07 15:01:32;;;;;;;14.20;7.32;;;;;;;;;;5037341;28;20033;-77
2023/02/07 15:04:17;;;;;;;14.73;7.28;;;;;;;;;;5036512;28;20442;-77
2023/02/07 15:07:10;;;;;;;12.90;7.68;;;;;;;;;;5036446;28;20050;-77
2023/02/07 15:09:56;;;;;;;12.38;7.85;;;;;;;;;;5035319;28;20438;-77
2023/02/07 15:12:45;;;;;;;14.65;8.00;;;;;;;;;;5036081;28;20018;-78
2023/02/07 15:15:51;;;;;;;12.63;6.90;;;;;;;;;;5036419;28;20021;-76
2023/02/07 15:18:38;;;;;;;15.27;8.32;;;;;;;;;;5047544;28;20021;-77
2023/02/07 15:21:40;;;;;;;12.50;7.85;;;;;;;;;;5055673;28;20032;-78
2023/02/07 15:24:28;;;;;;;16.25;8.05;;;;;;;;;;5056542;28;20438;-73
2023/02/07 15:27:22;;;;;;;13.68;7.88;;;;;;;;;;5057018;28;20013;-76
2023/02/07 15:30:16;;;;;;;18.20;8.85;;;;;;;;;;5057912;28;20028;-76
2023/02/07 15:33:09;;;;;;;14.57;7.93;;;;;;;;;;5056498;28;20056;-71
2023/02/07 15:35:54;;;;;;;14.80;7.57;;;;;;;;;;5065775;28;20116;-71
2023/02/07 15:38:40;;;;;;;13.95;8.00;;;;;;;;;;5066401;28;20021;-73
2023/02/07 15:41:29;;;;;;;18.58;9.25;;;;;;;;;;5062506;28;20107;-76
2023/02/07 15:44:17;;;;;;;15.43;8.90;;;;;;;;;;5056963;28;20025;-75
2023/02/07 15:47:07;;;;;;;15.00;8.93;;;;;;;;;;5056290;28;20421;-78
2023/02/07 15:49:59;;;;;;;31.10;10.05;;;;;;;;;;5056508;28;20353;-75
2023/02/07 15:52:51;;;;;;;18.77;8.30;;;;;;;;;;5055721;28;20021;-75
2023/02/07 15:55:42;;;;;;;15.18;8.50;;;;;;;;;;5055603;28;20107;-76
2023/02/07 15:58:35;;;;;;;18.90;8.10;;;;;;;;;;5056516;28;20411;-74
2023/02/07 16:01:28;;;;;;;14.02;8.57;;;;;;;;;;5056060;28;20025;-72
2023/02/07 16:04:14;;;;;;;16.33;8.10;;;;;;;;;;5064921;28;20017;-74
2023/02/07 16:07:00;;;;;;;17.52;8.38;;;;;;;;;;5066882;28;20402;-76
2023/02/07 16:09:49;;;;;;;16.52;8.52;;;;;;;;;;5056162;28;20032;-75
2023/02/07 16:12:48;;;;;;;16.35;8.20;;;;;;;;;;5056545;28;20438;-76
2023/02/07 16:15:36;;;;;;;14.00;8.50;;;;;;;;;;5057783;28;20115;-75
2023/02/07 16:18:40;;;;;;;17.15;8.98;;;;;;;;;;5057806;28;20021;-76
2023/02/07 16:21:27;;;;;;;21.33;10.02;;;;;;;;;;5057484;28;20400;-75
2023/02/07 16:24:20;;;;;;;18.88;10.70;;;;;;;;;;5056846;28;20346;-74
2023/02/07 16:27:06;;;;;;;21.15;10.65;;;;;;;;;;5056126;28;20025;-75
2023/02/07 16:29:55;;;;;;;22.83;11.88;;;;;;;;;;5055340;28;20028;-76
2023/02/07 16:32:41;;;;;;;25.95;13.32;;;;;;;;;;5055405;28;20041;-76
2023/02/07 16:35:27;;;;;;;26.10;14.13;;;;;;;;;;5055798;28;20035;-74
2023/02/07 16:38:12;;;;;;;25.77;14.00;;;;;;;;;;5067551;28;20048;-76
2023/02/07 16:40:59;;;;;;;27.75;15.38;;;;;;;;;;5059259;28;20048;-77
2023/02/07 16:43:45;;;;;;;27.20;14.77;;;;;;;;;;5058634;28;20025;-75